sensor_id;sensor_type;location;lat;lon;timestamp;P1;durP1;ratioP1;P2;durP2;ratioP2
75649;SDS011;64245;51.282;22.494;2022-12-18T00:01:29;93.35;;;28.50;;
75649;SDS011;64245;51.282;22.494;2022-12-18T00:03:58;76.63;;;24.05;;
75649;SDS011;64245;51.282;22.494;2022-12-18T00:06:26;22.50;;;9.85;;
75649;SDS011;64245;51.282;22.494;2022-12-18T00:08:56;59.55;;;17.00;;
75649;SDS011;64245;51.282;22.494;2022-12-18T00:11:23;79.07;;;23.23;;
75649;SDS011;64245;51.282;22.494;2022-12-18T00:13:51;30.92;;;13.55;;
75649;SDS011;64245;51.282;22.494;2022-12-18T00:16:21;45.13;;;16.25;;
75649;SDS011;64245;51.282;22.494;2022-12-18T00:18:49;42.72;;;14.40;;
75649;SDS011;64245;51.282;22.494;2022-12-18T00:21:16;44.08;;;14.70;;
75649;SDS011;64245;51.282;22.494;2022-12-18T00:23:42;100.88;;;26.17;;
75649;SDS011;64245;51.282;22.494;2022-12-18T00:26:14;48.65;;;17.33;;
75649;SDS011;64245;51.282;22.494;2022-12-18T00:28:42;45.70;;;19.27;;
75649;SDS011;64245;51.282;22.494;2022-12-18T00:31:10;96.07;;;27.15;;
75649;SDS011;64245;51.282;22.494;2022-12-18T00:33:37;50.55;;;15.60;;
75649;SDS011;64245;51.282;22.494;2022-12-18T00:36:04;47.97;;;16.50;;
75649;SDS011;64245;51.282;22.494;2022-12-18T00:38:32;41.67;;;15.43;;
75649;SDS011;64245;51.282;22.494;2022-12-18T00:40:59;31.90;;;11.68;;
75649;SDS011;64245;51.282;22.494;2022-12-18T00:43:24;65.28;;;22.75;;
75649;SDS011;64245;51.282;22.494;2022-12-18T00:45:50;51.38;;;18.40;;
75649;SDS011;64245;51.282;22.494;2022-12-18T00:48:16;42.80;;;15.45;;
75649;SDS011;64245;51.282;22.494;2022-12-18T00:50:42;38.03;;;13.82;;
75649;SDS011;64245;51.282;22.494;2022-12-18T00:53:11;24.95;;;12.65;;
75649;SDS011;64245;51.282;22.494;2022-12-18T00:58:04;14.65;;;8.80;;
75649;SDS011;64245;51.282;22.494;2022-12-18T01:00:30;37.63;;;12.63;;
75649;SDS011;64245;51.282;22.494;2022-12-18T01:02:55;30.42;;;11.60;;
75649;SDS011;64245;51.282;22.494;2022-12-18T01:05:21;17.50;;;6.63;;
75649;SDS011;64245;51.282;22.494;2022-12-18T01:07:47;37.35;;;10.25;;
75649;SDS011;64245;51.282;22.494;2022-12-18T01:10:12;36.90;;;10.60;;
75649;SDS011;64245;51.282;22.494;2022-12-18T01:12:38;43.88;;;13.55;;
75649;SDS011;64245;51.282;22.494;2022-12-18T01:15:05;50.83;;;13.80;;
75649;SDS011;64245;51.282;22.494;2022-12-18T01:17:32;18.75;;;5.45;;
75649;SDS011;64245;51.282;22.494;2022-12-18T01:19:58;20.88;;;9.48;;
75649;SDS011;64245;51.282;22.494;2022-12-18T01:22:23;42.35;;;11.75;;
75649;SDS011;64245;51.282;22.494;2022-12-18T01:24:49;41.78;;;12.93;;
75649;SDS011;64245;51.282;22.494;2022-12-18T01:27:15;32.38;;;10.05;;
75649;SDS011;64245;51.282;22.494;2022-12-18T01:29:41;35.45;;;11.77;;
75649;SDS011;64245;51.282;22.494;2022-12-18T01:32:06;21.23;;;7.55;;
75649;SDS011;64245;51.282;22.494;2022-12-18T01:34:32;48.22;;;15.98;;
75649;SDS011;64245;51.282;22.494;2022-12-18T01:37:00;46.67;;;15.90;;
75649;SDS011;64245;51.282;22.494;2022-12-18T01:39:28;31.33;;;11.45;;
75649;SDS011;64245;51.282;22.494;2022-12-18T01:41:54;32.92;;;11.98;;
75649;SDS011;64245;51.282;22.494;2022-12-18T01:47:26;36.95;;;7.32;;
75649;SDS011;64245;51.282;22.494;2022-12-18T01:49:56;43.58;;;12.45;;
75649;SDS011;64245;51.282;22.494;2022-12-18T01:52:24;24.30;;;12.85;;
75649;SDS011;64245;51.282;22.494;2022-12-18T01:54:53;82.90;;;22.20;;
75649;SDS011;64245;51.282;22.494;2022-12-18T01:57:20;51.20;;;16.55;;
75649;SDS011;64245;51.282;22.494;2022-12-18T01:59:48;43.75;;;14.60;;
75649;SDS011;64245;51.282;22.494;2022-12-18T02:02:16;62.78;;;17.88;;
75649;SDS011;64245;51.282;22.494;2022-12-18T02:04:42;46.70;;;16.88;;
75649;SDS011;64245;51.282;22.494;2022-12-18T02:09:41;54.97;;;19.73;;
75649;SDS011;64245;51.282;22.494;2022-12-18T02:12:16;41.03;;;13.00;;
75649;SDS011;64245;51.282;22.494;2022-12-18T02:17:21;51.67;;;18.35;;
75649;SDS011;64245;51.282;22.494;2022-12-18T02:22:43;41.45;;;11.98;;
75649;SDS011;64245;51.282;22.494;2022-12-18T02:27:52;16.40;;;7.68;;
75649;SDS011;64245;51.282;22.494;2022-12-18T02:30:23;37.63;;;13.13;;
75649;SDS011;64245;51.282;22.494;2022-12-18T02:32:50;22.80;;;8.65;;
75649;SDS011;64245;51.282;22.494;2022-12-18T02:35:22;25.00;;;8.65;;
75649;SDS011;64245;51.282;22.494;2022-12-18T02:37:56;35.78;;;12.57;;
75649;SDS011;64245;51.282;22.494;2022-12-18T02:40:24;50.08;;;15.55;;
75649;SDS011;64245;51.282;22.494;2022-12-18T02:42:52;44.22;;;12.32;;
75649;SDS011;64245;51.282;22.494;2022-12-18T02:45:18;29.88;;;10.18;;
75649;SDS011;64245;51.282;22.494;2022-12-18T02:47:45;12.73;;;6.72;;
75649;SDS011;64245;51.282;22.494;2022-12-18T02:52:52;30.80;;;9.32;;
75649;SDS011;64245;51.282;22.494;2022-12-18T03:01:22;51.42;;;13.05;;
75649;SDS011;64245;51.282;22.494;2022-12-18T03:04:11;22.90;;;8.15;;
75649;SDS011;64245;51.282;22.494;2022-12-18T03:06:48;23.30;;;9.15;;
75649;SDS011;64245;51.282;22.494;2022-12-18T03:09:18;29.90;;;9.85;;
75649;SDS011;64245;51.282;22.494;2022-12-18T03:11:50;33.28;;;10.63;;
75649;SDS011;64245;51.282;22.494;2022-12-18T03:14:40;32.55;;;13.40;;
75649;SDS011;64245;51.282;22.494;2022-12-18T03:17:12;23.13;;;7.20;;
75649;SDS011;64245;51.282;22.494;2022-12-18T03:19:42;19.67;;;10.90;;
75649;SDS011;64245;51.282;22.494;2022-12-18T03:22:10;59.67;;;19.70;;
75649;SDS011;64245;51.282;22.494;2022-12-18T03:24:36;15.10;;;9.00;;
75649;SDS011;64245;51.282;22.494;2022-12-18T03:27:06;15.80;;;5.60;;
75649;SDS011;64245;51.282;22.494;2022-12-18T03:29:43;22.95;;;9.02;;
75649;SDS011;64245;51.282;22.494;2022-12-18T03:32:16;32.15;;;10.65;;
75649;SDS011;64245;51.282;22.494;2022-12-18T03:35:03;38.00;;;12.77;;
75649;SDS011;64245;51.282;22.494;2022-12-18T03:37:31;29.30;;;11.27;;
75649;SDS011;64245;51.282;22.494;2022-12-18T03:39:57;26.23;;;10.55;;
75649;SDS011;64245;51.282;22.494;2022-12-18T03:42:28;34.17;;;11.55;;
75649;SDS011;64245;51.282;22.494;2022-12-18T03:48:01;32.63;;;10.07;;
75649;SDS011;64245;51.282;22.494;2022-12-18T03:55:43;33.05;;;13.60;;
75649;SDS011;64245;51.282;22.494;2022-12-18T03:58:11;13.40;;;5.38;;
75649;SDS011;64245;51.282;22.494;2022-12-18T04:00:41;47.50;;;15.98;;
75649;SDS011;64245;51.282;22.494;2022-12-18T04:03:08;47.63;;;14.82;;
75649;SDS011;64245;51.282;22.494;2022-12-18T04:05:35;37.08;;;14.88;;
75649;SDS011;64245;51.282;22.494;2022-12-18T04:08:02;29.25;;;12.82;;
75649;SDS011;64245;51.282;22.494;2022-12-18T04:10:29;20.40;;;10.73;;
75649;SDS011;64245;51.282;22.494;2022-12-18T04:12:55;54.15;;;22.13;;
75649;SDS011;64245;51.282;22.494;2022-12-18T04:15:22;43.22;;;17.98;;
75649;SDS011;64245;51.282;22.494;2022-12-18T04:17:48;34.85;;;13.82;;
75649;SDS011;64245;51.282;22.494;2022-12-18T04:20:14;44.08;;;13.40;;
75649;SDS011;64245;51.282;22.494;2022-12-18T04:22:40;33.42;;;14.07;;
75649;SDS011;64245;51.282;22.494;2022-12-18T04:25:05;18.33;;;8.27;;
75649;SDS011;64245;51.282;22.494;2022-12-18T04:27:31;46.03;;;17.15;;
75649;SDS011;64245;51.282;22.494;2022-12-18T04:29:57;19.33;;;7.25;;
75649;SDS011;64245;51.282;22.494;2022-12-18T04:32:23;17.90;;;6.05;;
75649;SDS011;64245;51.282;22.494;2022-12-18T04:34:48;27.35;;;10.73;;
75649;SDS011;64245;51.282;22.494;2022-12-18T04:37:14;24.75;;;10.40;;
75649;SDS011;64245;51.282;22.494;2022-12-18T04:39:40;22.20;;;7.55;;
75649;SDS011;64245;51.282;22.494;2022-12-18T04:42:05;23.88;;;9.05;;
75649;SDS011;64245;51.282;22.494;2022-12-18T04:44:31;32.75;;;10.95;;
75649;SDS011;64245;51.282;22.494;2022-12-18T04:46:57;31.60;;;10.90;;
75649;SDS011;64245;51.282;22.494;2022-12-18T04:49:22;24.30;;;9.52;;
75649;SDS011;64245;51.282;22.494;2022-12-18T04:51:48;23.20;;;9.63;;
75649;SDS011;64245;51.282;22.494;2022-12-18T04:54:13;16.20;;;6.32;;
75649;SDS011;64245;51.282;22.494;2022-12-18T04:56:39;11.20;;;4.22;;
75649;SDS011;64245;51.282;22.494;2022-12-18T04:59:05;25.10;;;10.45;;
75649;SDS011;64245;51.282;22.494;2022-12-18T05:01:33;14.68;;;7.15;;
75649;SDS011;64245;51.282;22.494;2022-12-18T05:03:59;33.80;;;10.82;;
75649;SDS011;64245;51.282;22.494;2022-12-18T05:06:25;30.05;;;10.98;;
75649;SDS011;64245;51.282;22.494;2022-12-18T05:08:51;25.45;;;8.85;;
75649;SDS011;64245;51.282;22.494;2022-12-18T05:11:17;27.13;;;9.43;;
75649;SDS011;64245;51.282;22.494;2022-12-18T05:13:43;12.88;;;6.53;;
75649;SDS011;64245;51.282;22.494;2022-12-18T05:16:10;18.40;;;8.32;;
75649;SDS011;64245;51.282;22.494;2022-12-18T05:18:36;37.58;;;15.88;;
75649;SDS011;64245;51.282;22.494;2022-12-18T05:21:02;28.55;;;11.43;;
75649;SDS011;64245;51.282;22.494;2022-12-18T05:23:29;13.20;;;6.85;;
75649;SDS011;64245;51.282;22.494;2022-12-18T05:25:58;24.40;;;10.15;;
75649;SDS011;64245;51.282;22.494;2022-12-18T05:28:29;26.20;;;7.35;;
75649;SDS011;64245;51.282;22.494;2022-12-18T05:30:58;19.00;;;8.13;;
75649;SDS011;64245;51.282;22.494;2022-12-18T05:33:25;28.00;;;10.20;;
75649;SDS011;64245;51.282;22.494;2022-12-18T05:38:21;27.35;;;9.88;;
75649;SDS011;64245;51.282;22.494;2022-12-18T05:40:48;13.20;;;5.78;;
75649;SDS011;64245;51.282;22.494;2022-12-18T05:43:13;25.77;;;9.82;;
75649;SDS011;64245;51.282;22.494;2022-12-18T05:45:40;20.35;;;7.65;;
75649;SDS011;64245;51.282;22.494;2022-12-18T05:48:07;27.63;;;10.05;;
75649;SDS011;64245;51.282;22.494;2022-12-18T05:50:34;25.95;;;9.73;;
75649;SDS011;64245;51.282;22.494;2022-12-18T05:53:04;26.10;;;9.40;;
75649;SDS011;64245;51.282;22.494;2022-12-18T05:55:36;15.18;;;6.22;;
75649;SDS011;64245;51.282;22.494;2022-12-18T05:58:04;25.42;;;8.32;;
75649;SDS011;64245;51.282;22.494;2022-12-18T06:00:31;26.70;;;10.25;;
75649;SDS011;64245;51.282;22.494;2022-12-18T06:02:57;35.28;;;12.75;;
75649;SDS011;64245;51.282;22.494;2022-12-18T06:05:24;28.92;;;9.27;;
75649;SDS011;64245;51.282;22.494;2022-12-18T06:07:50;11.48;;;5.43;;
75649;SDS011;64245;51.282;22.494;2022-12-18T06:10:16;32.47;;;11.10;;
75649;SDS011;64245;51.282;22.494;2022-12-18T06:12:41;22.60;;;8.38;;
75649;SDS011;64245;51.282;22.494;2022-12-18T06:15:07;26.45;;;9.80;;
75649;SDS011;64245;51.282;22.494;2022-12-18T06:17:33;19.92;;;7.28;;
75649;SDS011;64245;51.282;22.494;2022-12-18T06:20:00;19.10;;;6.55;;
75649;SDS011;64245;51.282;22.494;2022-12-18T06:22:26;18.83;;;8.23;;
75649;SDS011;64245;51.282;22.494;2022-12-18T06:24:52;26.33;;;8.18;;
75649;SDS011;64245;51.282;22.494;2022-12-18T06:27:18;10.13;;;4.60;;
75649;SDS011;64245;51.282;22.494;2022-12-18T06:29:44;8.25;;;3.25;;
75649;SDS011;64245;51.282;22.494;2022-12-18T06:32:10;26.35;;;9.45;;
75649;SDS011;64245;51.282;22.494;2022-12-18T06:34:37;26.50;;;11.13;;
75649;SDS011;64245;51.282;22.494;2022-12-18T06:37:02;13.63;;;5.50;;
75649;SDS011;64245;51.282;22.494;2022-12-18T06:39:28;3.97;;;2.45;;
75649;SDS011;64245;51.282;22.494;2022-12-18T06:41:54;18.25;;;6.68;;
75649;SDS011;64245;51.282;22.494;2022-12-18T06:44:20;24.48;;;9.65;;
75649;SDS011;64245;51.282;22.494;2022-12-18T06:46:45;20.77;;;8.27;;
75649;SDS011;64245;51.282;22.494;2022-12-18T06:49:11;14.88;;;6.43;;
75649;SDS011;64245;51.282;22.494;2022-12-18T06:51:37;30.63;;;9.98;;
75649;SDS011;64245;51.282;22.494;2022-12-18T06:54:03;26.88;;;9.55;;
75649;SDS011;64245;51.282;22.494;2022-12-18T06:56:29;24.33;;;9.45;;
75649;SDS011;64245;51.282;22.494;2022-12-18T06:58:55;29.92;;;8.95;;
75649;SDS011;64245;51.282;22.494;2022-12-18T07:01:21;31.25;;;11.07;;
75649;SDS011;64245;51.282;22.494;2022-12-18T07:03:51;36.17;;;10.07;;
75649;SDS011;64245;51.282;22.494;2022-12-18T07:06:19;22.63;;;10.25;;
75649;SDS011;64245;51.282;22.494;2022-12-18T07:08:47;33.33;;;12.32;;
75649;SDS011;64245;51.282;22.494;2022-12-18T07:11:13;34.20;;;11.65;;
75649;SDS011;64245;51.282;22.494;2022-12-18T07:13:39;33.97;;;9.85;;
75649;SDS011;64245;51.282;22.494;2022-12-18T07:18:32;41.95;;;15.18;;
75649;SDS011;64245;51.282;22.494;2022-12-18T07:20:58;25.20;;;9.07;;
75649;SDS011;64245;51.282;22.494;2022-12-18T07:23:27;33.85;;;12.02;;
75649;SDS011;64245;51.282;22.494;2022-12-18T07:25:52;41.58;;;12.63;;
75649;SDS011;64245;51.282;22.494;2022-12-18T07:28:18;26.52;;;10.57;;
75649;SDS011;64245;51.282;22.494;2022-12-18T07:30:44;25.38;;;9.77;;
75649;SDS011;64245;51.282;22.494;2022-12-18T07:33:10;16.42;;;6.25;;
75649;SDS011;64245;51.282;22.494;2022-12-18T07:35:38;25.60;;;9.05;;
75649;SDS011;64245;51.282;22.494;2022-12-18T07:38:04;26.90;;;8.63;;
75649;SDS011;64245;51.282;22.494;2022-12-18T07:40:30;31.67;;;11.30;;
75649;SDS011;64245;51.282;22.494;2022-12-18T07:42:56;23.27;;;9.30;;
75649;SDS011;64245;51.282;22.494;2022-12-18T07:45:21;25.30;;;9.10;;
75649;SDS011;64245;51.282;22.494;2022-12-18T07:47:47;18.13;;;7.18;;
75649;SDS011;64245;51.282;22.494;2022-12-18T07:50:13;18.27;;;8.07;;
75649;SDS011;64245;51.282;22.494;2022-12-18T07:52:39;34.03;;;10.73;;
75649;SDS011;64245;51.282;22.494;2022-12-18T07:55:04;30.95;;;12.57;;
75649;SDS011;64245;51.282;22.494;2022-12-18T07:57:30;24.48;;;9.25;;
75649;SDS011;64245;51.282;22.494;2022-12-18T07:59:56;19.65;;;6.97;;
75649;SDS011;64245;51.282;22.494;2022-12-18T08:02:22;22.50;;;9.27;;
75649;SDS011;64245;51.282;22.494;2022-12-18T08:04:47;18.00;;;6.72;;
75649;SDS011;64245;51.282;22.494;2022-12-18T08:07:13;32.53;;;10.38;;
75649;SDS011;64245;51.282;22.494;2022-12-18T08:09:38;24.15;;;8.93;;
75649;SDS011;64245;51.282;22.494;2022-12-18T08:12:04;34.67;;;11.23;;
75649;SDS011;64245;51.282;22.494;2022-12-18T08:14:30;34.40;;;12.55;;
75649;SDS011;64245;51.282;22.494;2022-12-18T08:16:56;24.20;;;8.68;;
75649;SDS011;64245;51.282;22.494;2022-12-18T08:19:21;23.80;;;8.75;;
75649;SDS011;64245;51.282;22.494;2022-12-18T08:21:47;18.70;;;6.80;;
75649;SDS011;64245;51.282;22.494;2022-12-18T08:24:13;23.25;;;9.10;;
75649;SDS011;64245;51.282;22.494;2022-12-18T08:26:39;15.13;;;5.70;;
75649;SDS011;64245;51.282;22.494;2022-12-18T08:29:04;15.63;;;6.18;;
75649;SDS011;64245;51.282;22.494;2022-12-18T08:31:30;6.28;;;4.10;;
75649;SDS011;64245;51.282;22.494;2022-12-18T08:33:56;23.48;;;9.05;;
75649;SDS011;64245;51.282;22.494;2022-12-18T08:36:23;33.13;;;9.52;;
75649;SDS011;64245;51.282;22.494;2022-12-18T08:38:49;27.58;;;9.40;;
75649;SDS011;64245;51.282;22.494;2022-12-18T08:41:16;28.23;;;10.55;;
75649;SDS011;64245;51.282;22.494;2022-12-18T08:43:42;25.55;;;8.70;;
75649;SDS011;64245;51.282;22.494;2022-12-18T08:46:30;34.20;;;12.88;;
75649;SDS011;64245;51.282;22.494;2022-12-18T08:48:59;14.35;;;6.72;;
75649;SDS011;64245;51.282;22.494;2022-12-18T08:51:25;30.05;;;11.90;;
75649;SDS011;64245;51.282;22.494;2022-12-18T08:53:50;31.73;;;10.15;;
75649;SDS011;64245;51.282;22.494;2022-12-18T08:56:16;25.13;;;9.13;;
75649;SDS011;64245;51.282;22.494;2022-12-18T08:58:42;43.95;;;15.57;;
75649;SDS011;64245;51.282;22.494;2022-12-18T09:01:08;33.75;;;12.43;;
75649;SDS011;64245;51.282;22.494;2022-12-18T09:03:36;30.83;;;10.55;;
75649;SDS011;64245;51.282;22.494;2022-12-18T09:06:02;22.42;;;8.50;;
75649;SDS011;64245;51.282;22.494;2022-12-18T09:08:28;25.65;;;10.13;;
75649;SDS011;64245;51.282;22.494;2022-12-18T09:10:54;18.27;;;7.63;;
75649;SDS011;64245;51.282;22.494;2022-12-18T09:13:20;27.65;;;13.15;;
75649;SDS011;64245;51.282;22.494;2022-12-18T09:15:47;20.73;;;6.93;;
75649;SDS011;64245;51.282;22.494;2022-12-18T09:18:15;11.60;;;6.68;;
75649;SDS011;64245;51.282;22.494;2022-12-18T09:20:43;22.88;;;10.13;;
75649;SDS011;64245;51.282;22.494;2022-12-18T09:23:09;19.40;;;6.82;;
75649;SDS011;64245;51.282;22.494;2022-12-18T09:25:36;27.33;;;12.95;;
75649;SDS011;64245;51.282;22.494;2022-12-18T09:28:03;20.65;;;7.80;;
75649;SDS011;64245;51.282;22.494;2022-12-18T09:30:30;16.58;;;6.10;;
75649;SDS011;64245;51.282;22.494;2022-12-18T09:32:58;21.05;;;8.18;;
75649;SDS011;64245;51.282;22.494;2022-12-18T09:35:24;24.65;;;8.20;;
75649;SDS011;64245;51.282;22.494;2022-12-18T09:37:50;22.10;;;8.35;;
75649;SDS011;64245;51.282;22.494;2022-12-18T09:40:16;20.40;;;8.57;;
75649;SDS011;64245;51.282;22.494;2022-12-18T09:42:45;24.48;;;11.45;;
75649;SDS011;64245;51.282;22.494;2022-12-18T09:45:17;28.35;;;8.45;;
75649;SDS011;64245;51.282;22.494;2022-12-18T09:47:43;23.25;;;7.95;;
75649;SDS011;64245;51.282;22.494;2022-12-18T09:50:32;23.70;;;8.45;;
75649;SDS011;64245;51.282;22.494;2022-12-18T09:53:02;20.42;;;8.63;;
75649;SDS011;64245;51.282;22.494;2022-12-18T09:58:16;16.17;;;7.85;;
75649;SDS011;64245;51.282;22.494;2022-12-18T10:00:51;18.95;;;7.80;;
75649;SDS011;64245;51.282;22.494;2022-12-18T10:03:17;37.25;;;10.48;;
75649;SDS011;64245;51.282;22.494;2022-12-18T10:08:36;24.35;;;7.85;;
75649;SDS011;64245;51.282;22.494;2022-12-18T10:14:23;8.57;;;4.63;;
75649;SDS011;64245;51.282;22.494;2022-12-18T10:17:04;14.43;;;6.20;;
75649;SDS011;64245;51.282;22.494;2022-12-18T10:19:41;19.95;;;7.05;;
75649;SDS011;64245;51.282;22.494;2022-12-18T10:25:23;19.90;;;7.45;;
75649;SDS011;64245;51.282;22.494;2022-12-18T10:27:58;14.70;;;6.97;;
75649;SDS011;64245;51.282;22.494;2022-12-18T10:30:36;18.75;;;6.55;;
75649;SDS011;64245;51.282;22.494;2022-12-18T10:33:05;12.27;;;6.07;;
75649;SDS011;64245;51.282;22.494;2022-12-18T10:35:34;21.35;;;8.43;;
75649;SDS011;64245;51.282;22.494;2022-12-18T10:40:27;11.95;;;4.35;;
75649;SDS011;64245;51.282;22.494;2022-12-18T10:43:09;15.60;;;6.47;;
75649;SDS011;64245;51.282;22.494;2022-12-18T10:45:38;11.45;;;4.68;;
75649;SDS011;64245;51.282;22.494;2022-12-18T10:48:04;23.17;;;9.27;;
75649;SDS011;64245;51.282;22.494;2022-12-18T10:50:45;15.70;;;7.43;;
75649;SDS011;64245;51.282;22.494;2022-12-18T10:53:18;16.45;;;6.63;;
75649;SDS011;64245;51.282;22.494;2022-12-18T10:55:46;20.33;;;8.23;;
75649;SDS011;64245;51.282;22.494;2022-12-18T10:58:23;17.50;;;6.20;;
75649;SDS011;64245;51.282;22.494;2022-12-18T11:01:08;7.30;;;3.63;;
75649;SDS011;64245;51.282;22.494;2022-12-18T11:03:40;7.45;;;2.88;;
75649;SDS011;64245;51.282;22.494;2022-12-18T11:06:24;14.82;;;6.90;;
75649;SDS011;64245;51.282;22.494;2022-12-18T11:09:01;22.63;;;8.43;;
75649;SDS011;64245;51.282;22.494;2022-12-18T11:11:49;19.20;;;7.90;;
75649;SDS011;64245;51.282;22.494;2022-12-18T11:14:19;15.77;;;5.78;;
75649;SDS011;64245;51.282;22.494;2022-12-18T11:16:49;19.17;;;8.15;;
75649;SDS011;64245;51.282;22.494;2022-12-18T11:19:33;12.35;;;5.95;;
75649;SDS011;64245;51.282;22.494;2022-12-18T11:22:17;14.43;;;7.45;;
75649;SDS011;64245;51.282;22.494;2022-12-18T11:24:56;11.48;;;4.65;;
75649;SDS011;64245;51.282;22.494;2022-12-18T11:30:07;17.10;;;6.00;;
75649;SDS011;64245;51.282;22.494;2022-12-18T11:33:05;5.95;;;2.80;;
75649;SDS011;64245;51.282;22.494;2022-12-18T11:38:30;4.53;;;2.00;;
75649;SDS011;64245;51.282;22.494;2022-12-18T11:41:46;13.18;;;5.55;;
75649;SDS011;64245;51.282;22.494;2022-12-18T11:44:31;21.88;;;8.75;;
75649;SDS011;64245;51.282;22.494;2022-12-18T11:47:37;16.75;;;7.43;;
75649;SDS011;64245;51.282;22.494;2022-12-18T11:50:16;13.50;;;5.38;;
75649;SDS011;64245;51.282;22.494;2022-12-18T11:52:49;14.30;;;6.05;;
75649;SDS011;64245;51.282;22.494;2022-12-18T12:01:06;14.63;;;6.65;;
75649;SDS011;64245;51.282;22.494;2022-12-18T12:06:07;13.77;;;6.47;;
75649;SDS011;64245;51.282;22.494;2022-12-18T12:14:34;14.15;;;5.95;;
75649;SDS011;64245;51.282;22.494;2022-12-18T12:23:38;17.85;;;7.35;;
75649;SDS011;64245;51.282;22.494;2022-12-18T12:26:26;15.35;;;6.28;;
75649;SDS011;64245;51.282;22.494;2022-12-18T12:29:07;18.20;;;8.73;;
75649;SDS011;64245;51.282;22.494;2022-12-18T12:31:50;19.73;;;6.38;;
75649;SDS011;64245;51.282;22.494;2022-12-18T12:34:34;10.30;;;3.63;;
75649;SDS011;64245;51.282;22.494;2022-12-18T12:39:49;13.13;;;5.20;;
75649;SDS011;64245;51.282;22.494;2022-12-18T12:42:20;16.55;;;7.13;;
75649;SDS011;64245;51.282;22.494;2022-12-18T12:45:28;18.65;;;6.40;;
75649;SDS011;64245;51.282;22.494;2022-12-18T12:50:28;12.10;;;5.78;;
75649;SDS011;64245;51.282;22.494;2022-12-18T12:52:58;19.20;;;6.93;;
75649;SDS011;64245;51.282;22.494;2022-12-18T12:55:27;20.50;;;8.07;;
75649;SDS011;64245;51.282;22.494;2022-12-18T13:06:25;9.18;;;3.67;;
75649;SDS011;64245;51.282;22.494;2022-12-18T13:09:13;14.55;;;6.00;;
75649;SDS011;64245;51.282;22.494;2022-12-18T13:11:45;14.10;;;6.10;;
75649;SDS011;64245;51.282;22.494;2022-12-18T13:14:35;14.38;;;5.40;;
75649;SDS011;64245;51.282;22.494;2022-12-18T13:17:15;18.63;;;6.57;;
75649;SDS011;64245;51.282;22.494;2022-12-18T13:19:44;17.48;;;6.97;;
75649;SDS011;64245;51.282;22.494;2022-12-18T13:22:23;16.35;;;6.43;;
75649;SDS011;64245;51.282;22.494;2022-12-18T13:25:00;9.00;;;5.07;;
75649;SDS011;64245;51.282;22.494;2022-12-18T13:41:03;13.88;;;6.47;;
75649;SDS011;64245;51.282;22.494;2022-12-18T13:43:50;15.77;;;6.15;;
75649;SDS011;64245;51.282;22.494;2022-12-18T13:46:27;14.32;;;6.82;;
75649;SDS011;64245;51.282;22.494;2022-12-18T13:48:58;15.65;;;6.10;;
75649;SDS011;64245;51.282;22.494;2022-12-18T13:51:27;8.43;;;5.53;;
75649;SDS011;64245;51.282;22.494;2022-12-18T13:54:17;19.20;;;8.20;;
75649;SDS011;64245;51.282;22.494;2022-12-18T13:56:47;17.90;;;7.03;;
75649;SDS011;64245;51.282;22.494;2022-12-18T14:04:19;18.42;;;6.90;;
75649;SDS011;64245;51.282;22.494;2022-12-18T14:06:46;14.18;;;5.35;;
75649;SDS011;64245;51.282;22.494;2022-12-18T14:09:13;17.83;;;7.15;;
75649;SDS011;64245;51.282;22.494;2022-12-18T14:11:45;17.77;;;7.15;;
75649;SDS011;64245;51.282;22.494;2022-12-18T14:14:13;17.42;;;7.05;;
75649;SDS011;64245;51.282;22.494;2022-12-18T14:16:41;13.57;;;6.75;;
75649;SDS011;64245;51.282;22.494;2022-12-18T14:19:09;17.45;;;7.32;;
75649;SDS011;64245;51.282;22.494;2022-12-18T14:21:40;16.83;;;6.53;;
75649;SDS011;64245;51.282;22.494;2022-12-18T14:26:34;15.93;;;5.70;;
75649;SDS011;64245;51.282;22.494;2022-12-18T14:29:01;16.02;;;6.35;;
75649;SDS011;64245;51.282;22.494;2022-12-18T14:31:43;14.40;;;6.30;;
75649;SDS011;64245;51.282;22.494;2022-12-18T14:34:14;19.77;;;6.32;;
75649;SDS011;64245;51.282;22.494;2022-12-18T14:36:41;22.05;;;7.82;;
75649;SDS011;64245;51.282;22.494;2022-12-18T14:39:17;19.45;;;7.38;;
75649;SDS011;64245;51.282;22.494;2022-12-18T14:41:43;16.50;;;6.32;;
75649;SDS011;64245;51.282;22.494;2022-12-18T14:44:11;19.30;;;5.80;;
75649;SDS011;64245;51.282;22.494;2022-12-18T14:46:38;15.70;;;6.15;;
75649;SDS011;64245;51.282;22.494;2022-12-18T14:51:53;13.07;;;4.50;;
75649;SDS011;64245;51.282;22.494;2022-12-18T14:54:30;10.57;;;5.65;;
75649;SDS011;64245;51.282;22.494;2022-12-18T14:57:16;17.73;;;7.53;;
75649;SDS011;64245;51.282;22.494;2022-12-18T14:59:44;20.42;;;7.55;;
75649;SDS011;64245;51.282;22.494;2022-12-18T15:02:26;16.02;;;7.45;;
75649;SDS011;64245;51.282;22.494;2022-12-18T15:05:04;14.18;;;6.40;;
75649;SDS011;64245;51.282;22.494;2022-12-18T15:07:47;13.00;;;6.15;;
75649;SDS011;64245;51.282;22.494;2022-12-18T15:10:22;17.98;;;5.63;;
75649;SDS011;64245;51.282;22.494;2022-12-18T15:13:05;14.13;;;5.35;;
75649;SDS011;64245;51.282;22.494;2022-12-18T15:18:09;19.08;;;6.10;;
75649;SDS011;64245;51.282;22.494;2022-12-18T15:20:42;13.55;;;5.78;;
75649;SDS011;64245;51.282;22.494;2022-12-18T15:23:20;15.07;;;5.90;;
75649;SDS011;64245;51.282;22.494;2022-12-18T15:25:47;14.10;;;6.72;;
75649;SDS011;64245;51.282;22.494;2022-12-18T15:33:37;13.25;;;5.13;;
75649;SDS011;64245;51.282;22.494;2022-12-18T15:36:14;15.88;;;6.45;;
75649;SDS011;64245;51.282;22.494;2022-12-18T15:38:46;12.27;;;6.00;;
75649;SDS011;64245;51.282;22.494;2022-12-18T15:41:15;19.42;;;6.20;;
75649;SDS011;64245;51.282;22.494;2022-12-18T15:43:43;14.13;;;5.18;;
75649;SDS011;64245;51.282;22.494;2022-12-18T15:46:13;16.80;;;6.15;;
75649;SDS011;64245;51.282;22.494;2022-12-18T15:48:45;16.02;;;5.68;;
75649;SDS011;64245;51.282;22.494;2022-12-18T15:51:17;15.38;;;5.50;;
75649;SDS011;64245;51.282;22.494;2022-12-18T15:53:46;17.83;;;5.68;;
75649;SDS011;64245;51.282;22.494;2022-12-18T15:56:14;15.77;;;5.60;;
75649;SDS011;64245;51.282;22.494;2022-12-18T15:59:00;15.85;;;5.13;;
75649;SDS011;64245;51.282;22.494;2022-12-18T16:01:27;12.13;;;4.70;;
75649;SDS011;64245;51.282;22.494;2022-12-18T16:03:54;14.38;;;5.45;;
75649;SDS011;64245;51.282;22.494;2022-12-18T16:06:20;18.35;;;5.90;;
75649;SDS011;64245;51.282;22.494;2022-12-18T16:08:46;16.77;;;6.20;;
75649;SDS011;64245;51.282;22.494;2022-12-18T16:11:22;15.90;;;6.13;;
75649;SDS011;64245;51.282;22.494;2022-12-18T16:14:13;13.68;;;6.25;;
75649;SDS011;64245;51.282;22.494;2022-12-18T16:16:51;14.40;;;5.13;;
75649;SDS011;64245;51.282;22.494;2022-12-18T16:19:19;20.10;;;6.10;;
75649;SDS011;64245;51.282;22.494;2022-12-18T16:21:46;15.98;;;6.95;;
75649;SDS011;64245;51.282;22.494;2022-12-18T16:24:22;19.15;;;7.10;;
75649;SDS011;64245;51.282;22.494;2022-12-18T16:26:53;14.40;;;5.80;;
75649;SDS011;64245;51.282;22.494;2022-12-18T16:29:23;18.88;;;7.90;;
75649;SDS011;64245;51.282;22.494;2022-12-18T16:31:58;20.90;;;7.40;;
75649;SDS011;64245;51.282;22.494;2022-12-18T16:34:29;18.40;;;7.22;;
75649;SDS011;64245;51.282;22.494;2022-12-18T16:36:58;17.80;;;7.57;;
75649;SDS011;64245;51.282;22.494;2022-12-18T16:39:25;21.80;;;7.90;;